Time;durP1;ratioP1;P1;durP2;ratioP2;P2;SDS_P1;SDS_P2;PMS_P1;PMS_P2;Temp;Humidity;BMP_temperature;BMP_pressure;BME280_temperature;BME280_humidity;BME280_pressure;Samples;Min_cycle;Max_cycle;Signal;HPM_P1;HPM_P2
2023/12/23 00:02:16;;;;;;;4.90;2.10;;;;;;;1.40;56.31;94598.33;108143;1237;97482;-79
2023/12/23 00:04:42;;;;;;;4.60;2.30;;;;;;;1.40;56.55;94590.66;108262;1237;96638;-79
2023/12/23 00:07:12;;;;;;;5.90;2.50;;;;;;;1.42;56.78;94584.30;108208;1234;97096;-81
2023/12/23 00:09:39;;;;;;;9.10;2.80;;;;;;;1.43;56.94;94582.95;108229;1245;100187;-79
2023/12/23 00:12:07;;;;;;;4.50;2.10;;;;;;;1.44;56.98;94591.90;108197;1236;97341;-79
2023/12/23 00:14:33;;;;;;;4.10;1.70;;;;;;;1.46;57.12;94602.83;108261;1245;96758;-79
2023/12/23 00:17:00;;;;;;;6.40;2.00;;;;;;;1.48;57.25;94600.17;108184;1237;96539;-69
2023/12/23 00:19:26;;;;;;;4.70;1.70;;;;;;;1.50;57.18;94607.20;108206;1237;96572;-70
2023/12/23 07:16:44;;;;;;;3.50;1.50;;;;;;;-0.24;63.10;95275.39;108219;1234;96659;-80
2023/12/23 07:19:10;;;;;;;3.40;1.60;;;;;;;-0.20;62.90;95280.77;108227;1232;97561;-74
2023/12/23 07:21:36;;;;;;;4.30;1.60;;;;;;;-0.20;62.63;95283.75;108289;1235;96566;-73
2023/12/23 07:24:03;;;;;;;7.30;1.70;;;;;;;-0.19;62.43;95291.34;108360;1235;96594;-74
2023/12/23 07:26:30;;;;;;;6.30;2.10;;;;;;;-0.18;62.16;95295.55;108295;1243;96975;-73
2023/12/23 07:28:56;;;;;;;5.50;1.90;;;;;;;-0.19;61.97;95316.47;108468;1234;96538;-73
2023/12/23 07:31:22;;;;;;;5.50;2.80;;;;;;;-0.19;61.71;95312.63;108375;1238;96628;-81
2023/12/23 07:33:49;;;;;;;5.20;2.50;;;;;;;-0.20;61.78;95318.83;108291;1244;96563;-81
2023/12/23 07:36:16;;;;;;;4.50;1.40;;;;;;;-0.21;61.65;95319.35;108384;1234;97037;-80
2023/12/23 07:38:42;;;;;;;3.50;1.40;;;;;;;-0.22;61.71;95320.97;108168;1234;101136;-81
2023/12/23 07:41:09;;;;;;;9.20;2.40;;;;;;;-0.22;61.73;95324.45;108251;1241;97125;-79
2023/12/23 07:43:36;;;;;;;3.70;1.90;;;;;;;-0.19;61.72;95333.28;108289;1242;97459;-81
2023/12/23 07:46:03;;;;;;;4.30;2.30;;;;;;;-0.17;61.79;95338.35;108300;1238;96543;-81
2023/12/23 07:48:29;;;;;;;4.50;2.60;;;;;;;-0.17;61.86;95336.32;108379;1244;96634;-80
2023/12/23 07:50:56;;;;;;;6.40;2.50;;;;;;;-0.19;61.82;95340.17;108342;1235;97133;-81
2023/12/23 07:53:22;;;;;;;3.60;1.90;;;;;;;-0.22;61.65;95341.90;108228;1234;99748;-79
2023/12/23 07:55:49;;;;;;;7.30;2.60;;;;;;;-0.23;61.56;95347.52;108208;1244;97567;-79
2023/12/23 07:58:15;;;;;;;3.70;1.70;;;;;;;-0.24;61.29;95339.70;108306;1235;96540;-81
2023/12/23 08:00:42;;;;;;;6.00;2.20;;;;;;;-0.24;61.04;95339.21;108375;1240;97058;-80
2023/12/23 08:03:09;;;;;;;3.70;2.20;;;;;;;-0.23;61.11;95348.82;108314;1232;98853;-73
2023/12/23 08:05:36;;;;;;;4.20;1.00;;;;;;;-0.23;61.06;95340.42;108303;1242;96563;-73
2023/12/23 08:08:02;;;;;;;3.40;1.80;;;;;;;-0.20;61.02;95344.45;108324;1243;96553;-73
2023/12/23 08:10:29;;;;;;;1.50;1.30;;;;;;;-0.17;61.00;95343.29;108327;1235;97792;-74
2023/12/23 08:12:55;;;;;;;5.30;2.00;;;;;;;-0.18;60.78;95344.42;108376;1234;96552;-73
2023/12/23 08:15:21;;;;;;;4.20;2.10;;;;;;;-0.19;60.75;95349.27;108303;1235;96553;-74
2023/12/23 08:17:49;;;;;;;4.30;2.40;;;;;;;-0.21;60.29;95345.86;108038;1244;96542;-74
2023/12/23 08:20:16;;;;;;;4.40;1.80;;;;;;;-0.22;60.22;95350.27;108300;1235;96582;-75
2023/12/23 08:22:42;;;;;;;2.80;1.50;;;;;;;-0.21;60.15;95352.96;108321;1235;97227;-75
2023/12/23 08:25:09;;;;;;;4.10;1.90;;;;;;;-0.18;60.27;95362.00;108357;1232;97252;-75
2023/12/23 08:27:38;;;;;;;3.40;1.70;;;;;;;-0.16;60.10;95356.11;108312;1241;97093;-75
2023/12/23 08:30:06;;;;;;;2.20;1.40;;;;;;;-0.16;59.99;95356.55;108362;1234;102149;-74
2023/12/23 08:32:32;;;;;;;5.00;1.90;;;;;;;-0.14;59.50;95357.68;108400;1232;100266;-74
2023/12/23 08:34:59;;;;;;;4.80;2.50;;;;;;;-0.11;59.36;95361.35;108174;1242;97212;-73
2023/12/23 08:37:26;;;;;;;5.50;2.40;;;;;;;-0.07;59.36;95361.62;108367;1241;96693;-68
2023/12/23 08:39:53;;;;;;;4.10;2.10;;;;;;;-0.09;58.77;95370.83;108309;1241;96579;-67
2023/12/23 08:42:19;;;;;;;3.00;1.60;;;;;;;-0.11;58.79;95371.63;108440;1234;97878;-68
2023/12/23 08:44:45;;;;;;;3.90;2.10;;;;;;;-0.11;58.83;95368.11;108234;1236;99661;-69
2023/12/23 08:47:12;;;;;;;3.20;2.10;;;;;;;-0.10;59.38;95372.48;108329;1230;96550;-69
2023/12/23 08:49:39;;;;;;;5.60;1.90;;;;;;;-0.03;59.26;95369.04;108319;1241;97455;-69
2023/12/23 08:52:07;;;;;;;5.60;2.10;;;;;;;-0.04;58.82;95354.27;108312;1232;96760;-70
2023/12/23 08:54:33;;;;;;;3.30;1.60;;;;;;;-0.07;58.83;95346.85;108316;1243;96586;-70
2023/12/23 08:56:59;;;;;;;4.60;1.50;;;;;;;-0.08;58.77;95350.73;108326;1232;96659;-69
2023/12/23 08:59:25;;;;;;;2.40;1.70;;;;;;;-0.07;58.93;95349.67;108318;1242;98323;-81
2023/12/23 09:01:52;;;;;;;5.50;2.20;;;;;;;0.00;58.57;95344.90;108330;1242;97807;-81
2023/12/23 09:04:18;;;;;;;3.30;1.90;;;;;;;0.08;58.52;95336.45;108294;1235;96560;-81
2023/12/23 09:06:45;;;;;;;5.60;2.50;;;;;;;0.21;58.38;95339.20;108376;1234;96547;-81
2023/12/23 09:09:11;;;;;;;4.30;2.60;;;;;;;0.30;57.76;95343.20;108315;1235;97090;-81
2023/12/23 09:11:43;;;;;;;2.90;1.70;;;;;;;0.36;57.50;95343.63;108327;1244;96560;-80
2023/12/23 09:14:10;;;;;;;3.90;1.40;;;;;;;0.44;57.51;95346.36;108369;1235;101090;-81
2023/12/23 09:16:36;;;;;;;3.50;2.10;;;;;;;0.48;56.79;95342.50;108254;1243;96569;-81
2023/12/23 09:19:03;;;;;;;5.20;1.90;;;;;;;0.50;56.59;95353.55;108358;1244;96796;-80
2023/12/23 09:21:30;;;;;;;4.00;1.60;;;;;;;0.53;56.88;95364.27;108336;1235;96629;-81
2023/12/23 09:23:56;;;;;;;2.80;1.70;;;;;;;0.55;56.90;95355.16;108381;1233;97253;-81
2023/12/23 09:26:24;;;;;;;2.20;1.60;;;;;;;0.56;57.20;95359.77;108314;1244;99929;-81
2023/12/23 09:28:51;;;;;;;5.50;1.80;;;;;;;0.57;56.91;95360.38;108367;1242;97040;-81
2023/12/23 09:31:18;;;;;;;4.80;1.70;;;;;;;0.56;56.48;95364.98;108312;1241;97050;-71
2023/12/23 09:33:44;;;;;;;4.10;1.90;;;;;;;0.56;56.62;95359.75;108417;1241;96601;-70
2023/12/23 09:36:12;;;;;;;5.70;2.60;;;;;;;0.58;56.32;95349.14;108349;1241;96553;-70
2023/12/23 09:38:38;;;;;;;3.10;1.70;;;;;;;0.58;56.56;95351.11;108522;1244;97769;-70
2023/12/23 09:41:05;;;;;;;3.20;1.80;;;;;;;0.59;56.88;95344.38;108462;1241;96537;-68
2023/12/23 09:43:33;;;;;;;17.60;5.80;;;;;;;0.59;56.76;95357.31;108377;1230;102126;-68
2023/12/23 09:46:02;;;;;;;7.50;2.90;;;;;;;0.59;56.77;95352.30;108399;1234;101260;-74
2023/12/23 09:48:28;;;;;;;6.10;2.60;;;;;;;0.60;56.83;95346.49;108311;1243;99710;-74
2023/12/23 09:50:54;;;;;;;8.70;3.20;;;;;;;0.64;57.00;95343.02;108286;1232;96694;-74
2023/12/23 09:53:22;;;;;;;17.00;6.40;;;;;;;0.69;56.96;95344.68;108386;1232;96527;-68
2023/12/23 09:55:48;;;;;;;7.80;2.70;;;;;;;0.75;57.15;95349.55;108394;1235;96541;-68
2023/12/23 09:58:14;;;;;;;3.30;1.80;;;;;;;0.80;57.01;95343.23;108414;1241;96569;-68
2023/12/23 10:00:41;;;;;;;6.50;2.50;;;;;;;0.81;56.85;95338.34;108282;1234;97571;-68
2023/12/23 10:03:07;;;;;;;7.10;2.40;;;;;;;0.82;56.73;95337.77;108337;1234;97452;-73
2023/12/23 10:05:42;;;;;;;8.80;3.60;;;;;;;0.82;56.21;95328.86;108321;1239;97778;-73
2023/12/23 10:08:08;;;;;;;7.30;2.90;;;;;;;0.86;56.28;95328.37;108350;1239;100239;-73
2023/12/23 10:10:35;;;;;;;4.40;2.50;;;;;;;0.88;56.35;95329.35;108318;1235;96620;-76
2023/12/23 10:13:01;;;;;;;4.10;1.60;;;;;;;0.88;56.35;95334.10;108319;1235;97078;-73
2023/12/23 10:15:29;;;;;;;6.80;2.70;;;;;;;0.89;56.34;95331.85;108422;1242;97070;-73
2023/12/23 10:17:56;;;;;;;7.60;2.60;;;;;;;0.88;56.32;95319.79;108101;1244;100191;-68
2023/12/23 10:20:22;;;;;;;4.90;2.20;;;;;;;0.89;55.85;95322.61;108342;1243;97446;-69
2023/12/23 10:22:49;;;;;;;4.20;1.60;;;;;;;0.91;55.81;95323.08;108316;1235;96606;-68
2023/12/23 10:25:15;;;;;;;8.00;3.40;;;;;;;0.91;55.84;95317.84;108374;1230;97465;-68
2023/12/23 10:27:43;;;;;;;5.10;2.10;;;;;;;0.94;55.59;95321.66;108195;1244;100310;-70
2023/12/23 10:30:11;;;;;;;6.80;3.30;;;;;;;0.98;55.23;95321.69;108244;1232;99815;-71
2023/12/23 10:32:39;;;;;;;4.70;1.80;;;;;;;1.00;55.45;95327.70;108180;1231;97792;-70
2023/12/23 10:35:07;;;;;;;5.80;2.00;;;;;;;1.03;55.41;95324.35;108312;1235;97142;-70
2023/12/23 10:37:34;;;;;;;3.80;1.80;;;;;;;1.03;55.29;95318.11;108328;1241;102391;-70
2023/12/23 10:40:19;;;;;;;7.10;2.40;;;;;;;1.04;55.36;95322.31;108290;1238;96824;-68
2023/12/23 10:42:47;;;;;;;4.10;1.80;;;;;;;1.02;55.26;95312.38;108348;1235;98552;-70
2023/12/23 10:45:14;;;;;;;6.50;2.30;;;;;;;1.04;55.24;95302.65;108408;1233;97791;-68
2023/12/23 10:47:42;;;;;;;6.20;2.50;;;;;;;1.07;55.06;95306.30;108301;1235;96519;-79
2023/12/23 10:50:10;;;;;;;8.40;2.40;;;;;;;1.08;54.84;95296.61;108380;1235;101773;-79
2023/12/23 10:52:37;;;;;;;4.30;1.80;;;;;;;1.08;54.61;95293.79;108375;1234;101214;-68
2023/12/23 10:55:05;;;;;;;8.60;2.70;;;;;;;1.04;53.28;95287.16;108375;1235;96989;-68
2023/12/23 10:57:32;;;;;;;5.20;2.50;;;;;;;1.02;53.81;95290.17;108425;1235;97347;-69
2023/12/23 10:59:58;;;;;;;6.60;2.80;;;;;;;1.04;54.34;95285.94;108404;1243;97774;-69
2023/12/23 11:02:29;;;;;;;7.20;3.10;;;;;;;1.07;54.40;95289.83;108393;1229;97460;-68
2023/12/23 11:04:57;;;;;;;5.90;2.60;;;;;;;1.12;54.68;95272.65;108425;1235;101182;-70
2023/12/23 11:07:28;;;;;;;8.90;3.80;;;;;;;1.15;54.60;95271.67;108352;1234;100046;-70
2023/12/23 11:09:58;;;;;;;16.00;7.70;;;;;;;1.17;54.22;95265.50;108288;1238;96645;-70
2023/12/23 11:12:25;;;;;;;13.20;4.90;;;;;;;1.14;53.88;95250.65;108358;1234;97042;-70
2023/12/23 11:14:51;;;;;;;7.60;3.00;;;;;;;1.12;54.21;95248.56;108341;1241;96461;-69
2023/12/23 11:17:25;;;;;;;8.30;3.60;;;;;;;1.15;54.47;95251.10;108278;1233;97143;-75
2023/12/23 11:20:02;;;;;;;4.50;2.10;;;;;;;1.15;53.87;95243.46;108340;1239;99813;-75
2023/12/23 11:22:39;;;;;;;4.90;2.50;;;;;;;1.11;53.47;95245.75;108317;1232;96793;-75
2023/12/23 11:25:41;;;;;;;12.10;5.60;;;;;;;1.04;53.14;95238.27;108302;1241;97871;-75
2023/12/23 11:28:13;;;;;;;10.40;5.00;;;;;;;0.97;53.84;95237.41;108324;1244;100660;-75
2023/12/23 11:31:00;;;;;;;17.50;6.10;;;;;;;0.97;53.60;95232.92;108283;1238;101176;-70
2023/12/23 11:33:36;;;;;;;12.70;4.60;;;;;;;0.95;53.55;95230.19;108266;1238;99761;-82
2023/12/23 11:36:03;;;;;;;16.70;6.30;;;;;;;0.91;53.54;95225.40;108302;1244;97381;-82
2023/12/23 11:38:45;;;;;;;11.80;5.90;;;;;;;0.89;53.66;95230.79;108339;1238;97807;-82
2023/12/23 11:41:13;;;;;;;10.80;4.60;;;;;;;0.88;54.10;95227.56;108349;1243;101754;-81
2023/12/23 11:43:43;;;;;;;8.30;4.10;;;;;;;0.91;54.20;95219.77;108291;1235;101173;-81
2023/12/23 11:46:09;;;;;;;10.60;4.80;;;;;;;0.92;54.03;95224.30;108291;1234;99780;-74
2023/12/23 11:48:36;;;;;;;12.20;5.40;;;;;;;0.90;53.13;95224.13;108167;1235;96642;-75
2023/12/23 11:51:03;;;;;;;7.80;3.60;;;;;;;0.86;52.74;95228.02;108221;1242;96540;-75
2023/12/23 11:53:30;;;;;;;10.60;4.50;;;;;;;0.82;52.75;95218.38;109453;1233;98598;-76
2023/12/23 11:56:00;;;;;;;14.20;4.70;;;;;;;0.78;52.10;95212.77;108084;1237;96619;-75
2023/12/23 11:58:26;;;;;;;9.60;4.50;;;;;;;0.77;52.83;95208.69;108271;1233;97792;-75
2023/12/23 12:00:54;;;;;;;7.60;3.00;;;;;;;0.80;53.22;95208.61;108262;1235;96566;-75
2023/12/23 12:03:23;;;;;;;7.70;3.20;;;;;;;0.82;53.57;95201.35;108302;1242;97487;-75
2023/12/23 12:05:57;;;;;;;9.30;3.60;;;;;;;0.85;53.51;95202.42;108359;1234;101213;-75
2023/12/23 12:08:25;;;;;;;8.40;4.90;;;;;;;0.86;53.41;95200.14;108282;1244;101577;-81
2023/12/23 12:10:55;;;;;;;6.60;3.60;;;;;;;0.88;53.53;95206.23;108209;1234;99774;-81
2023/12/23 12:13:21;;;;;;;10.50;4.30;;;;;;;0.89;53.07;95209.50;108341;1234;97453;-81
2023/12/23 12:15:48;;;;;;;12.00;5.90;;;;;;;0.90;53.02;95207.30;108339;1244;96617;-81
2023/12/23 12:18:14;;;;;;;13.30;5.60;;;;;;;0.90;53.26;95206.77;108247;1241;97804;-80
2023/12/23 12:20:42;;;;;;;10.90;6.20;;;;;;;0.90;53.25;95214.50;108378;1244;96535;-81
2023/12/23 12:23:08;;;;;;;9.20;4.30;;;;;;;0.90;53.72;95210.41;108166;1235;129762;-81
2023/12/23 12:25:34;;;;;;;7.60;4.20;;;;;;;0.94;53.93;95215.77;108297;1234;96534;-82
2023/12/23 12:28:02;;;;;;;7.50;4.00;;;;;;;0.95;53.69;95216.50;108165;1241;97785;-73
2023/12/23 12:30:28;;;;;;;6.60;3.40;;;;;;;0.94;53.84;95210.98;108277;1238;96551;-73
2023/12/23 12:32:58;;;;;;;7.70;3.40;;;;;;;0.92;53.61;95213.23;108216;1235;96562;-81
2023/12/23 12:35:24;;;;;;;6.80;3.00;;;;;;;0.87;53.69;95215.98;108321;1234;97072;-83
2023/12/23 12:37:51;;;;;;;7.30;3.60;;;;;;;0.84;54.28;95212.86;108277;1241;96639;-81
2023/12/23 12:40:18;;;;;;;7.80;3.10;;;;;;;0.85;54.64;95214.70;108309;1234;97765;-81
2023/12/23 12:42:46;;;;;;;7.40;2.80;;;;;;;0.82;55.28;95219.04;108274;1235;97817;-82
2023/12/23 12:45:14;;;;;;;11.00;3.50;;;;;;;0.79;55.61;95217.39;108308;1233;96606;-80
2023/12/23 12:47:40;;;;;;;8.10;3.20;;;;;;;0.76;56.28;95220.27;108311;1241;96531;-73
2023/12/23 12:50:07;;;;;;;6.80;2.80;;;;;;;0.70;56.52;95220.22;108180;1231;96565;-75
2023/12/23 12:52:35;;;;;;;19.20;9.40;;;;;;;0.71;56.98;95221.32;108267;1235;97801;-75
2023/12/23 12:55:04;;;;;;;13.70;6.10;;;;;;;0.68;57.93;95229.67;108241;1234;96522;-75
2023/12/23 12:57:30;;;;;;;19.40;10.70;;;;;;;0.62;58.54;95229.15;108303;1235;97755;-75
2023/12/23 12:59:57;;;;;;;12.50;6.30;;;;;;;0.59;58.75;95227.55;108352;1235;97569;-75
2023/12/23 13:02:25;;;;;;;7.70;4.30;;;;;;;0.56;59.55;95231.88;108041;1230;96974;-75
2023/12/23 13:04:51;;;;;;;9.60;4.10;;;;;;;0.52;59.86;95234.02;108068;1236;96565;-75
2023/12/23 13:07:18;;;;;;;6.80;3.00;;;;;;;0.48;61.26;95235.73;108152;1235;96764;-75
2023/12/23 13:09:45;;;;;;;11.40;4.80;;;;;;;0.36;62.95;95242.09;108276;1234;97662;-75
2023/12/23 13:12:12;;;;;;;6.90;3.30;;;;;;;0.28;62.88;95246.14;108154;1236;100352;-75
2023/12/23 13:14:38;;;;;;;9.30;3.80;;;;;;;0.23;64.78;95249.32;108237;1235;97452;-75
2023/12/23 13:17:05;;;;;;;10.30;5.50;;;;;;;0.15;64.51;95250.19;108230;1242;97662;-69
2023/12/23 13:19:32;;;;;;;10.10;4.80;;;;;;;0.11;64.80;95259.57;108240;1235;97836;-69
2023/12/23 13:21:58;;;;;;;13.80;6.40;;;;;;;0.02;66.70;95259.95;108292;1241;96600;-69
2023/12/23 13:24:25;;;;;;;10.80;5.70;;;;;;;-0.09;69.32;95264.76;108085;1240;99955;-70
2023/12/23 13:27:03;;;;;;;11.30;4.90;;;;;;;-0.19;68.38;95261.23;108250;1234;96602;-74
2023/12/23 13:29:38;;;;;;;9.50;4.80;;;;;;;-0.21;69.85;95255.59;108314;1238;97490;-73
2023/12/23 13:32:05;;;;;;;9.70;4.10;;;;;;;-0.25;69.19;95255.88;108339;1234;101973;-80
2023/12/23 13:34:31;;;;;;;11.30;4.90;;;;;;;-0.30;70.40;95258.33;108283;1234;97766;-81
2023/12/23 13:36:58;;;;;;;10.80;4.90;;;;;;;-0.36;70.52;95257.28;108298;1232;97452;-81
2023/12/23 13:39:25;;;;;;;21.20;12.10;;;;;;;-0.39;70.94;95257.15;108397;1232;96540;-80
2023/12/23 13:42:01;;;;;;;22.40;10.00;;;;;;;-0.42;71.75;95262.80;111750;1230;94497;-81
2023/12/23 13:44:27;;;;;;;20.50;11.40;;;;;;;-0.46;71.67;95269.29;109107;1233;101113;-81
2023/12/23 13:47:00;;;;;;;18.50;10.30;;;;;;;-0.47;71.27;95266.96;108507;1235;96553;-82
2023/12/23 13:49:26;;;;;;;;;;;;;;;-0.44;70.76;95272.12;108524;1232;97229;-82
2023/12/23 13:51:53;;;;;;;22.20;11.90;;;;;;;-0.45;71.36;95275.90;108391;1235;96549;-83
2023/12/23 13:54:19;;;;;;;22.60;9.90;;;;;;;-0.47;71.94;95276.21;108339;1231;97113;-82
2023/12/23 13:56:49;;;;;;;20.70;10.00;;;;;;;-0.47;71.66;95282.08;108424;1241;97799;-82
2023/12/23 13:59:15;;;;;;;23.10;11.50;;;;;;;-0.49;71.86;95277.92;108417;1241;96550;-83
2023/12/23 14:01:42;;;;;;;34.00;21.30;;;;;;;-0.50;71.95;95281.52;108303;1238;96531;-73
2023/12/23 14:04:08;;;;;;;39.80;24.10;;;;;;;-0.49;71.79;95283.02;108321;1235;96848;-74
2023/12/23 14:06:35;;;;;;;35.70;16.90;;;;;;;-0.48;72.48;95286.33;108373;1233;97053;-79
2023/12/23 14:09:01;;;;;;;22.10;10.50;;;;;;;-0.50;73.19;95279.64;108289;1233;97416;-81
2023/12/23 14:11:27;;;;;;;24.10;10.60;;;;;;;-0.53;72.98;95281.44;108397;1235;96982;-81
2023/12/23 14:13:54;;;;;;;19.40;9.90;;;;;;;-0.51;72.55;95283.79;108338;1235;96474;-82
2023/12/23 14:16:21;;;;;;;22.80;11.20;;;;;;;-0.49;72.49;95283.14;108433;1235;97658;-73
2023/12/23 14:18:47;;;;;;;29.00;16.10;;;;;;;-0.47;72.47;95286.04;108280;1234;96559;-73
2023/12/23 14:21:16;;;;;;;36.40;18.10;;;;;;;-0.44;72.66;95285.20;108397;1241;97017;-75
2023/12/23 14:23:42;;;;;;;42.60;18.90;;;;;;;-0.47;73.16;95288.66;108316;1234;100993;-82
2023/12/23 14:26:16;;;;;;;40.90;17.40;;;;;;;-0.50;72.89;95290.03;108309;1232;96653;-74
2023/12/23 14:28:43;;;;;;;33.90;16.10;;;;;;;-0.49;72.94;95293.41;108316;1241;99864;-74
2023/12/23 14:31:12;;;;;;;27.50;14.10;;;;;;;-0.53;73.94;95289.48;108351;1230;97752;-75
2023/12/23 14:33:38;;;;;;;30.70;17.90;;;;;;;-0.60;73.72;95282.58;108280;1233;97077;-75
2023/12/23 14:36:05;;;;;;;41.70;29.10;;;;;;;-0.60;74.23;95287.55;108295;1238;97806;-78
2023/12/23 14:38:31;;;;;;;30.70;20.10;;;;;;;-0.60;74.13;95285.67;108334;1241;96608;-74
2023/12/23 14:40:57;;;;;;;34.20;18.30;;;;;;;-0.60;73.87;95291.83;108387;1232;96597;-74
2023/12/23 14:43:24;;;;;;;31.50;16.10;;;;;;;-0.58;73.63;95293.84;108270;1230;97047;-82
2023/12/23 14:45:50;;;;;;;25.10;13.50;;;;;;;-0.57;73.54;95297.10;108337;1239;97687;-80
2023/12/23 14:48:16;;;;;;;22.50;13.10;;;;;;;-0.57;73.56;95298.66;108285;1232;97458;-73
2023/12/23 14:50:43;;;;;;;24.40;12.50;;;;;;;-0.55;73.99;95298.27;108331;1244;97873;-75
2023/12/23 14:53:09;;;;;;;23.20;13.40;;;;;;;-0.56;74.03;95303.84;108446;1233;96985;-73
2023/12/23 14:55:36;;;;;;;29.90;19.40;;;;;;;-0.56;73.60;95301.39;108308;1241;97762;-73
2023/12/23 14:58:02;;;;;;;28.60;19.00;;;;;;;-0.56;73.96;95302.78;108344;1234;96502;-73
2023/12/23 15:00:29;;;;;;;37.10;23.10;;;;;;;-0.55;74.02;95303.32;108290;1241;96534;-81
2023/12/23 15:02:55;;;;;;;39.10;23.20;;;;;;;-0.53;74.40;95306.48;108253;1235;96535;-76
2023/12/23 15:05:22;;;;;;;47.10;24.60;;;;;;;-0.54;74.46;95307.48;108384;1232;96946;-73
2023/12/23 15:07:48;;;;;;;37.00;20.10;;;;;;;-0.57;75.43;95308.73;108117;1244;96949;-75
2023/12/23 15:10:15;;;;;;;35.10;20.40;;;;;;;-0.62;75.38;95313.52;108382;1230;97803;-76
2023/12/23 15:12:41;;;;;;;42.20;28.50;;;;;;;-0.63;75.49;95319.58;108329;1236;96544;-74
2023/12/23 15:15:13;;;;;;;30.20;21.30;;;;;;;-0.64;75.26;95321.24;108316;1235;97755;-75
2023/12/23 15:17:40;;;;;;;;;;;;;;;-0.61;75.26;95319.99;108362;1232;99935;-74
2023/12/23 15:20:08;;;;;;;27.70;17.50;;;;;;;-0.63;75.58;95316.52;108325;1241;97433;-79
2023/12/23 15:22:34;;;;;;;25.70;16.00;;;;;;;-0.63;75.57;95324.23;108201;1233;96576;-75
2023/12/23 15:25:01;;;;;;;26.10;16.90;;;;;;;-0.63;75.74;95331.23;108362;1238;96515;-74
2023/12/23 15:27:27;;;;;;;29.60;20.00;;;;;;;-0.63;75.64;95336.23;108334;1236;96550;-76
2023/12/23 15:29:55;;;;;;;32.00;21.00;;;;;;;-0.62;76.07;95340.87;108427;1234;97698;-77
2023/12/23 15:32:21;;;;;;;26.60;17.20;;;;;;;-0.65;75.71;95335.95;108327;1233;97220;-81
2023/12/23 15:34:50;;;;;;;25.00;15.80;;;;;;;-0.64;75.56;95337.76;108332;1234;97446;-82
2023/12/23 15:37:17;;;;;;;26.70;17.00;;;;;;;-0.59;75.44;95341.86;108335;1232;102084;-80
2023/12/23 15:39:43;;;;;;;26.90;17.10;;;;;;;-0.57;75.57;95344.92;108337;1234;97436;-82
2023/12/23 15:42:10;;;;;;;29.90;19.00;;;;;;;-0.59;76.54;95348.39;108275;1232;96937;-80
2023/12/23 15:44:36;;;;;;;35.30;20.90;;;;;;;-0.63;76.87;95356.36;108259;1232;96816;-81
2023/12/23 15:47:11;;;;;;;34.00;19.50;;;;;;;-0.67;76.84;95356.11;108156;1243;102147;-82
2023/12/23 15:49:38;;;;;;;31.90;19.40;;;;;;;-0.66;76.88;95358.19;108291;1238;101217;-82
2023/12/23 15:52:05;;;;;;;32.50;18.70;;;;;;;-0.66;76.94;95356.37;108309;1235;96556;-82
2023/12/23 15:54:34;;;;;;;41.00;21.50;;;;;;;-0.68;77.61;95361.07;108297;1235;96756;-82
2023/12/23 15:57:05;;;;;;;34.30;21.40;;;;;;;-0.72;77.32;95363.45;108317;1232;97042;-81
2023/12/23 15:59:34;;;;;;;35.30;22.00;;;;;;;-0.73;77.50;95361.82;108315;1233;101120;-82
2023/12/23 16:02:00;;;;;;;39.30;23.90;;;;;;;-0.73;77.34;95361.90;108218;1232;101365;-74
2023/12/23 16:04:28;;;;;;;35.90;22.90;;;;;;;-0.70;77.16;95368.67;108294;1232;96627;-73
2023/12/23 16:06:54;;;;;;;39.80;25.10;;;;;;;-0.67;77.15;95371.35;108320;1233;96587;-74
2023/12/23 16:09:21;;;;;;;35.40;21.60;;;;;;;-0.65;77.14;95377.45;108336;1235;97763;-74
2023/12/23 16:11:48;;;;;;;35.00;21.10;;;;;;;-0.63;77.02;95385.01;108411;1230;97658;-74
2023/12/23 16:14:15;;;;;;;33.30;20.40;;;;;;;-0.62;77.16;95392.65;108319;1241;99809;-74
2023/12/23 16:16:41;;;;;;;33.00;20.30;;;;;;;-0.62;77.24;95390.69;108347;1232;96892;-73
2023/12/23 16:19:08;;;;;;;29.90;18.70;;;;;;;-0.61;76.99;95389.11;108335;1235;97014;-73
2023/12/23 16:21:34;;;;;;;35.00;18.10;;;;;;;-0.59;77.00;95388.90;108384;1234;97386;-75
2023/12/23 16:24:08;;;;;;;33.60;19.70;;;;;;;-0.56;76.94;95391.63;108260;1230;99639;-73
2023/12/23 16:26:35;;;;;;;31.20;19.00;;;;;;;-0.52;77.05;95395.83;108284;1234;96556;-74
2023/12/23 16:29:01;;;;;;;28.00;18.90;;;;;;;-0.52;77.03;95401.70;108307;1234;97797;-73
2023/12/23 16:31:27;;;;;;;31.70;19.80;;;;;;;-0.50;76.91;95405.95;108338;1235;96540;-82
2023/12/23 16:33:54;;;;;;;35.60;22.20;;;;;;;-0.52;77.04;95409.12;108386;1235;96967;-83
2023/12/23 16:36:23;;;;;;;44.70;26.20;;;;;;;-0.53;76.94;95409.77;108302;1241;96553;-74
2023/12/23 16:38:52;;;;;;;49.30;26.90;;;;;;;-0.52;76.90;95408.50;108393;1234;97052;-82
2023/12/23 16:41:19;;;;;;;43.30;26.60;;;;;;;-0.51;77.04;95409.17;108314;1234;101907;-82
2023/12/23 16:43:45;;;;;;;40.70;25.20;;;;;;;-0.51;77.10;95405.83;108339;1234;97445;-82
2023/12/23 16:46:12;;;;;;;41.10;25.50;;;;;;;-0.51;77.29;95409.62;108356;1241;96566;-73
2023/12/23 16:48:38;;;;;;;42.00;25.10;;;;;;;-0.51;77.35;95412.95;108355;1231;97535;-73
2023/12/23 16:51:04;;;;;;;37.80;25.30;;;;;;;-0.52;77.42;95413.03;108298;1234;102109;-73
2023/12/23 16:53:31;;;;;;;40.40;25.30;;;;;;;-0.53;77.35;95417.02;108384;1241;96633;-73
2023/12/23 16:55:57;;;;;;;89.00;41.40;;;;;;;-0.52;77.42;95419.14;108351;1234;97022;-82
2023/12/23 16:58:23;;;;;;;78.30;38.90;;;;;;;-0.52;77.49;95418.41;108368;1241;96550;-75
2023/12/23 17:00:50;;;;;;;99.90;56.30;;;;;;;-0.51;77.65;95421.48;108348;1233;102134;-73
2023/12/23 17:03:20;;;;;;;118.20;54.80;;;;;;;-0.53;77.70;95420.14;108288;1235;96758;-73
2023/12/23 17:05:46;;;;;;;67.30;33.80;;;;;;;-0.52;77.62;95427.38;108364;1235;100077;-74
2023/12/23 17:08:13;;;;;;;36.90;21.70;;;;;;;-0.48;77.76;95431.80;108230;1241;97496;-73
2023/12/23 17:10:42;;;;;;;37.60;22.10;;;;;;;-0.47;77.78;95436.95;108337;1234;96966;-73
2023/12/23 17:13:08;;;;;;;36.00;20.40;;;;;;;-0.47;77.78;95441.55;108303;1240;96588;-74
2023/12/23 17:15:35;;;;;;;41.70;25.20;;;;;;;-0.45;77.82;95441.49;108314;1235;97330;-75
2023/12/23 17:18:03;;;;;;;41.30;25.40;;;;;;;-0.43;77.88;95443.12;108414;1241;96565;-74
2023/12/23 17:20:30;;;;;;;45.30;24.80;;;;;;;-0.41;78.01;95443.27;108307;1238;96534;-75
2023/12/23 17:22:56;;;;;;;42.00;26.00;;;;;;;-0.40;78.00;95447.59;108299;1232;97106;-75
2023/12/23 17:25:23;;;;;;;56.20;33.60;;;;;;;-0.39;78.07;95444.66;108347;1233;97506;-77
2023/12/23 17:27:51;;;;;;;56.20;31.80;;;;;;;-0.38;78.04;95447.37;108330;1233;98511;-74
2023/12/23 17:30:17;;;;;;;49.00;28.60;;;;;;;-0.38;77.99;95449.29;108297;1235;97773;-74
2023/12/23 17:32:44;;;;;;;47.90;28.20;;;;;;;-0.40;77.93;95453.09;108321;1234;97014;-82
2023/12/23 17:35:10;;;;;;;50.20;28.00;;;;;;;-0.40;78.08;95456.44;108179;1234;97691;-74
2023/12/23 17:37:37;;;;;;;44.10;26.90;;;;;;;-0.41;78.18;95450.88;108218;1238;96553;-82
2023/12/23 17:40:04;;;;;;;46.60;29.20;;;;;;;-0.40;78.23;95452.89;108125;1244;96560;-83
2023/12/23 17:42:30;;;;;;;50.70;30.10;;;;;;;-0.38;78.46;95458.26;108164;1235;97069;-83
2023/12/23 17:44:59;;;;;;;45.90;31.40;;;;;;;-0.37;78.40;95464.30;108097;1235;96652;-83
2023/12/23 17:47:26;;;;;;;49.80;31.90;;;;;;;-0.33;78.37;95476.31;108120;1234;100182;-74
2023/12/23 17:49:52;;;;;;;49.40;31.10;;;;;;;-0.33;78.24;95482.17;108198;1233;96666;-73
2023/12/23 17:52:19;;;;;;;49.70;29.70;;;;;;;-0.34;78.42;95485.19;108282;1241;97543;-76
2023/12/23 17:54:47;;;;;;;49.90;30.00;;;;;;;-0.33;78.33;95488.98;108382;1234;96941;-74
2023/12/23 17:57:15;;;;;;;49.40;29.20;;;;;;;-0.31;78.36;95490.52;108304;1235;96477;-84
2023/12/23 17:59:42;;;;;;;73.70;36.40;;;;;;;-0.30;78.47;95493.23;108294;1244;97465;-82
2023/12/23 18:02:12;;;;;;;52.90;32.30;;;;;;;-0.31;78.58;95495.09;108271;1244;97768;-73
2023/12/23 18:04:39;;;;;;;46.60;28.10;;;;;;;-0.34;78.47;95489.63;108336;1235;96550;-72
2023/12/23 18:07:06;;;;;;;46.60;27.60;;;;;;;-0.35;78.60;95489.95;108257;1237;97443;-75
2023/12/23 18:09:41;;;;;;;43.30;24.50;;;;;;;-0.36;78.60;95500.63;108357;1232;96965;-73
2023/12/23 18:12:07;;;;;;;44.90;25.70;;;;;;;-0.37;78.90;95504.80;108356;1235;99810;-75
2023/12/23 18:14:33;;;;;;;48.60;27.50;;;;;;;-0.40;78.93;95505.01;108294;1232;96583;-73
2023/12/23 18:17:02;;;;;;;46.00;26.70;;;;;;;-0.39;79.11;95505.40;108352;1232;96527;-73